Time;durP1;ratioP1;P1;durP2;ratioP2;P2;SDS_P1;SDS_P2;PMS_P1;PMS_P2;Temp;Humidity;BMP_temperature;BMP_pressure;BME280_temperature;BME280_humidity;BME280_pressure;Samples;Min_cycle;Max_cycle;Signal;HPM_P1;HPM_P2
2022/06/01 00:02:17;;;;;;;6.60;4.97;;;7.00;99.90;;;;;;5012835;28;20087;-71
2022/06/01 00:04:44;;;;;;;7.55;5.25;;;6.90;99.90;;;;;;5009303;28;20037;-71
2022/06/01 00:07:09;;;;;;;7.43;5.53;;;6.90;99.90;;;;;;5001423;28;20037;-71
2022/06/01 00:09:35;;;;;;;7.78;5.50;;;6.80;99.90;;;;;;5015018;28;20037;-71
2022/06/01 00:12:01;;;;;;;8.57;5.70;;;6.80;99.90;;;;;;5001685;28;20389;-71
2022/06/01 00:14:26;;;;;;;7.75;5.50;;;6.80;99.90;;;;;;5012204;28;20575;-71
2022/06/01 00:16:55;;;;;;;6.10;5.28;;;6.80;99.90;;;;;;4999430;28;20454;-71
2022/06/01 00:19:22;;;;;;;6.40;4.43;;;6.70;99.90;;;;;;5005342;28;20046;-71
2022/06/01 00:24:32;;;;;;;7.22;4.95;;;6.60;99.90;;;;;;5002186;28;20066;-71
2022/06/01 00:26:57;;;;;;;7.03;4.70;;;6.50;99.90;;;;;;5016411;28;20034;-71
2022/06/01 00:29:23;;;;;;;6.22;4.70;;;6.40;99.90;;;;;;5003050;28;20117;-71
2022/06/01 00:31:49;;;;;;;5.00;4.45;;;6.40;99.90;;;;;;5013550;28;20033;-71
2022/06/01 00:34:14;;;;;;;6.00;4.75;;;6.30;99.90;;;;;;5006652;28;20073;-71
2022/06/01 00:36:40;;;;;;;4.88;3.88;;;6.30;99.90;;;;;;5006783;28;20045;-71
2022/06/01 00:39:06;;;;;;;5.50;4.30;;;6.30;99.90;;;;;;5013748;28;20029;-70
2022/06/01 00:41:32;;;;;;;6.10;4.07;;;6.20;99.90;;;;;;5013745;28;20427;-71
2022/06/01 00:43:57;;;;;;;6.22;4.78;;;6.20;99.90;;;;;;5012640;28;20640;-71
2022/06/01 00:46:23;;;;;;;5.45;4.53;;;6.20;99.90;;;;;;5015893;28;20029;-71
2022/06/01 00:48:53;;;;;;;7.80;4.07;;;6.20;99.90;;;;;;5008029;28;20034;-71
2022/06/01 00:51:24;;;;;;;6.45;4.05;;;6.10;99.90;;;;;;5008720;28;20037;-71
2022/06/01 00:53:53;;;;;;;6.00;4.05;;;6.10;99.90;;;;;;5012988;28;20065;-71
2022/06/01 00:56:24;;;;;;;6.55;4.03;;;6.00;99.90;;;;;;4997198;28;20044;-71
2022/06/01 00:58:55;;;;;;;5.28;4.15;;;6.10;99.90;;;;;;5001188;28;20050;-70
2022/06/01 01:01:21;;;;;;;5.67;3.87;;;6.10;99.90;;;;;;5014174;28;20037;-71
2022/06/01 01:03:50;;;;;;;4.28;3.85;;;6.00;99.90;;;;;;5012964;28;20890;-71
2022/06/01 01:06:30;;;;;;;5.20;4.50;;;6.00;99.90;;;;;;5004782;28;20037;-71
2022/06/01 01:08:56;;;;;;;5.05;4.10;;;5.90;99.90;;;;;;5018951;28;20397;-71
2022/06/01 01:11:52;;;;;;;5.07;4.57;;;5.90;99.90;;;;;;5016206;28;20546;-70
2022/06/01 01:14:21;;;;;;;6.68;3.97;;;5.90;99.90;;;;;;5000059;28;20049;-71
2022/06/01 01:16:48;;;;;;;8.05;4.65;;;5.90;99.90;;;;;;5000648;28;20045;-71
2022/06/01 01:19:36;;;;;;;6.70;4.28;;;5.80;99.90;;;;;;5011466;28;20116;-71
2022/06/01 01:22:22;;;;;;;6.40;4.25;;;5.80;99.90;;;;;;5001215;28;20029;-71
2022/06/01 01:25:16;;;;;;;6.93;4.63;;;5.70;99.90;;;;;;4989861;28;20044;-71
2022/06/01 01:27:45;;;;;;;7.57;5.60;;;5.80;99.90;;;;;;5011199;28;20052;-71
2022/06/01 01:30:26;;;;;;;7.07;5.10;;;5.90;99.90;;;;;;5017001;28;20325;-71
2022/06/01 01:32:52;;;;;;;7.28;4.68;;;5.90;99.90;;;;;;5016754;28;20045;-70
2022/06/01 01:35:19;;;;;;;6.35;4.38;;;6.00;99.90;;;;;;5011442;28;20083;-70
2022/06/01 01:37:47;;;;;;;5.07;4.57;;;6.00;99.90;;;;;;5005224;28;20080;-71
2022/06/01 01:40:13;;;;;;;5.72;4.60;;;6.00;99.90;;;;;;5032290;28;20029;-71
2022/06/01 01:42:39;;;;;;;6.05;4.10;;;6.10;99.90;;;;;;5002073;28;20026;-71
2022/06/01 01:45:24;;;;;;;6.85;4.07;;;6.10;99.90;;;;;;5013825;28;20044;-71
2022/06/01 01:47:51;;;;;;;5.97;3.95;;;6.10;99.90;;;;;;5007372;28;20135;-70
2022/06/01 01:50:19;;;;;;;7.25;5.15;;;6.00;99.90;;;;;;5001804;28;20425;-70
2022/06/01 01:52:45;;;;;;;6.10;4.20;;;5.90;99.90;;;;;;5003005;28;20065;-71
2022/06/01 01:55:23;;;;;;;5.22;4.03;;;5.80;99.90;;;;;;5014360;28;20029;-71
2022/06/01 01:58:02;;;;;;;5.47;4.18;;;5.80;99.90;;;;;;5023839;28;20045;-70
2022/06/01 02:00:30;;;;;;;5.32;3.85;;;5.60;99.90;;;;;;5021909;28;20029;-70
2022/06/01 02:03:01;;;;;;;6.22;4.47;;;5.50;99.90;;;;;;5023911;28;20653;-70
2022/06/01 02:08:28;;;;;;;4.57;3.95;;;5.40;99.90;;;;;;5021088;28;19931;-71
2022/06/01 02:13:54;;;;;;;4.85;3.90;;;5.20;99.90;;;;;;5012270;28;20515;-70
2022/06/01 02:16:24;;;;;;;5.60;4.22;;;5.20;99.90;;;;;;5014423;28;20720;-71
2022/06/01 02:18:52;;;;;;;6.18;4.32;;;5.10;99.90;;;;;;5003064;28;20262;-70
2022/06/01 02:21:21;;;;;;;5.70;3.75;;;5.10;99.90;;;;;;5002719;28;20032;-71
2022/06/01 02:23:50;;;;;;;5.88;3.88;;;5.10;99.90;;;;;;5019309;28;20548;-71
2022/06/01 02:26:20;;;;;;;6.90;4.03;;;5.10;99.90;;;;;;5003558;28;20033;-72
2022/06/01 02:28:49;;;;;;;6.75;4.20;;;5.10;99.90;;;;;;5002493;28;20134;-71
2022/06/01 02:31:17;;;;;;;4.75;4.03;;;5.10;99.90;;;;;;4989520;28;20037;-71
2022/06/01 02:33:46;;;;;;;4.03;3.63;;;5.10;99.90;;;;;;5015395;28;20523;-71
2022/06/01 02:36:14;;;;;;;4.00;3.15;;;5.10;99.90;;;;;;5020412;28;20036;-71
2022/06/01 02:38:43;;;;;;;4.82;3.08;;;5.10;99.90;;;;;;5018558;28;20416;-71
2022/06/01 02:43:54;;;;;;;5.60;4.47;;;5.20;99.90;;;;;;5015437;28;20052;-71
2022/06/01 02:46:20;;;;;;;6.47;4.18;;;5.40;99.90;;;;;;5009447;28;20030;-71
2022/06/01 02:48:46;;;;;;;6.03;4.82;;;5.50;99.90;;;;;;5025908;28;20037;-71
2022/06/01 02:51:12;;;;;;;5.63;4.32;;;5.60;99.90;;;;;;5014641;28;20559;-71
2022/06/01 02:53:38;;;;;;;7.72;4.60;;;5.70;99.90;;;;;;5007076;28;20109;-71
2022/06/01 02:56:05;;;;;;;8.48;5.10;;;5.70;99.90;;;;;;5015308;28;20301;-71
2022/06/01 02:58:30;;;;;;;10.02;6.15;;;5.70;99.90;;;;;;5014127;28;20636;-71
2022/06/01 03:00:58;;;;;;;9.23;5.80;;;5.70;99.90;;;;;;5001766;28;20041;-70
2022/06/01 03:03:24;;;;;;;8.85;6.63;;;5.70;99.90;;;;;;5008300;28;20192;-71
2022/06/01 03:05:50;;;;;;;8.05;5.90;;;5.70;99.90;;;;;;5002855;28;20136;-71
2022/06/01 03:08:16;;;;;;;8.27;5.30;;;5.80;99.90;;;;;;5011064;28;20438;-71
2022/06/01 03:10:41;;;;;;;9.05;5.68;;;5.80;99.90;;;;;;5018752;28;20026;-71
2022/06/01 03:13:07;;;;;;;7.18;5.25;;;5.70;99.90;;;;;;5019190;28;20041;-71
2022/06/01 03:15:33;;;;;;;7.88;5.15;;;5.60;99.90;;;;;;5019984;28;20140;-71
2022/06/01 03:17:59;;;;;;;7.25;4.97;;;5.60;99.90;;;;;;5018148;28;20042;-71
2022/06/01 03:20:27;;;;;;;7.75;5.22;;;5.50;99.90;;;;;;5029553;28;20028;-71
2022/06/01 03:22:53;;;;;;;6.53;4.95;;;5.50;99.90;;;;;;5014653;28;20037;-71
2022/06/01 03:25:24;;;;;;;8.50;4.70;;;5.40;99.90;;;;;;5018711;28;20110;-71
2022/06/01 03:27:55;;;;;;;8.30;4.63;;;5.40;99.90;;;;;;5022391;28;20072;-71
2022/06/01 03:30:21;;;;;;;6.85;4.78;;;5.50;99.90;;;;;;5020802;28;20140;-71
2022/06/01 03:32:48;;;;;;;6.32;4.57;;;5.50;99.90;;;;;;5012017;28;20044;-71
2022/06/01 03:35:16;;;;;;;7.95;4.75;;;5.60;99.90;;;;;;5001911;28;20126;-71
2022/06/01 03:37:42;;;;;;;7.43;4.78;;;5.60;99.90;;;;;;5020692;28;20150;-71
2022/06/01 03:40:09;;;;;;;7.40;5.10;;;5.60;99.90;;;;;;5021496;28;20540;-71
2022/06/01 03:42:34;;;;;;;7.25;5.10;;;5.50;99.90;;;;;;5008634;28;20044;-71
2022/06/01 03:47:45;;;;;;;6.70;4.75;;;5.40;99.90;;;;;;5019145;28;20040;-71
2022/06/01 03:50:11;;;;;;;8.00;5.05;;;5.40;99.90;;;;;;5015169;28;20033;-72
2022/06/01 03:52:37;;;;;;;6.50;4.07;;;5.30;99.90;;;;;;5019032;28;20087;-71
2022/06/01 03:55:05;;;;;;;7.88;4.85;;;5.30;99.90;;;;;;5021001;28;20118;-71
2022/06/01 03:57:30;;;;;;;8.35;4.40;;;5.20;99.90;;;;;;5021322;28;20158;-71
2022/06/01 03:59:56;;;;;;;6.30;4.60;;;5.10;99.90;;;;;;5022751;28;20030;-71
2022/06/01 04:02:22;;;;;;;8.15;4.45;;;5.10;99.90;;;;;;5009171;28;20033;-71
2022/06/01 04:04:47;;;;;;;6.68;4.00;;;5.00;99.90;;;;;;5006250;28;20034;-71
2022/06/01 04:07:13;;;;;;;7.10;4.40;;;5.00;99.90;;;;;;4998323;28;20033;-71
2022/06/01 04:09:38;;;;;;;7.47;4.50;;;5.00;99.90;;;;;;5014940;28;20106;-71
2022/06/01 04:12:04;;;;;;;7.55;5.30;;;5.00;99.90;;;;;;5020345;28;20029;-71
2022/06/01 04:14:30;;;;;;;9.05;5.20;;;5.00;99.90;;;;;;5031885;28;20048;-71
2022/06/01 04:16:55;;;;;;;9.07;4.88;;;5.00;99.90;;;;;;5008615;28;20283;-71
2022/06/01 04:19:21;;;;;;;8.07;5.53;;;5.00;99.90;;;;;;5005689;28;20090;-71
2022/06/01 04:21:50;;;;;;;11.45;6.15;;;5.10;99.90;;;;;;5008998;28;20041;-71
2022/06/01 04:24:19;;;;;;;9.77;5.75;;;5.20;99.90;;;;;;5012428;28;20039;-71
2022/06/01 04:26:45;;;;;;;9.65;6.68;;;5.20;99.90;;;;;;5029582;28;20025;-71
2022/06/01 04:29:11;;;;;;;8.43;5.55;;;5.30;99.90;;;;;;5011804;28;20038;-71
2022/06/01 04:31:37;;;;;;;10.57;6.03;;;5.30;99.90;;;;;;5010423;28;20039;-71
2022/06/01 04:34:04;;;;;;;11.15;6.85;;;5.40;99.90;;;;;;5002863;28;20501;-71
2022/06/01 04:36:30;;;;;;;10.52;6.95;;;5.50;99.90;;;;;;4997720;28;20041;-71
2022/06/01 04:38:56;;;;;;;14.70;7.50;;;5.60;99.90;;;;;;5008692;28;20539;-71
2022/06/01 04:41:21;;;;;;;11.50;7.60;;;5.80;99.90;;;;;;4993423;28;20049;-71
2022/06/01 04:43:47;;;;;;;12.90;7.85;;;5.90;99.90;;;;;;5000940;28;20252;-71
2022/06/01 04:46:12;;;;;;;13.25;7.18;;;6.10;99.90;;;;;;5010738;28;20084;-71
2022/06/01 04:48:38;;;;;;;10.85;7.07;;;6.20;99.90;;;;;;5020077;28;20030;-71
2022/06/01 04:51:05;;;;;;;11.52;6.55;;;6.20;99.90;;;;;;5010253;28;20025;-71
2022/06/01 04:53:31;;;;;;;9.10;6.00;;;6.20;99.90;;;;;;5011308;28;20037;-71
2022/06/01 04:55:56;;;;;;;9.25;6.90;;;6.20;99.90;;;;;;5020036;28;20607;-71
2022/06/01 04:58:22;;;;;;;9.25;6.13;;;6.20;99.90;;;;;;5016729;28;20048;-71
2022/06/01 05:00:49;;;;;;;9.48;6.28;;;6.20;99.90;;;;;;5016550;28;20032;-71
2022/06/01 05:03:15;;;;;;;8.93;5.93;;;6.20;99.90;;;;;;5008736;28;20036;-71
2022/06/01 05:05:41;;;;;;;8.35;5.57;;;6.20;99.90;;;;;;4999324;28;20029;-71
2022/06/01 05:08:08;;;;;;;9.88;6.38;;;6.20;99.90;;;;;;5011175;28;20538;-71
2022/06/01 05:10:35;;;;;;;10.07;6.57;;;6.30;99.90;;;;;;5001532;28;20044;-71
2022/06/01 05:13:01;;;;;;;13.05;7.43;;;6.40;99.90;;;;;;5012045;28;20530;-71
2022/06/01 05:15:27;;;;;;;15.85;7.70;;;6.40;99.90;;;;;;5010540;28;20184;-71
2022/06/01 05:17:53;;;;;;;11.23;6.78;;;6.50;99.90;;;;;;5018735;28;20124;-71
2022/06/01 05:20:18;;;;;;;8.80;5.78;;;6.60;99.90;;;;;;5019899;28;20022;-71
2022/06/01 05:22:44;;;;;;;8.90;6.10;;;6.60;99.90;;;;;;5001506;28;20030;-71
2022/06/01 05:25:10;;;;;;;8.90;6.00;;;6.50;99.90;;;;;;5013854;28;20030;-71
2022/06/01 05:27:37;;;;;;;7.85;5.55;;;6.50;99.90;;;;;;5011380;28;20532;-71
2022/06/01 05:30:05;;;;;;;10.98;6.00;;;6.50;99.90;;;;;;5003196;28;20143;-71
2022/06/01 05:32:33;;;;;;;9.60;6.50;;;6.50;99.90;;;;;;5027408;28;20477;-72
2022/06/01 05:35:00;;;;;;;8.75;5.70;;;6.50;99.90;;;;;;5019350;28;20527;-72
2022/06/01 05:37:25;;;;;;;9.48;7.07;;;6.50;99.90;;;;;;5002151;28;20084;-72
2022/06/01 05:39:52;;;;;;;16.77;6.50;;;6.60;99.90;;;;;;5016751;28;20212;-70
2022/06/01 05:42:18;;;;;;;9.48;6.55;;;6.60;99.90;;;;;;5024021;28;20079;-72
2022/06/01 05:44:44;;;;;;;10.80;6.68;;;6.60;99.90;;;;;;5003914;28;20489;-71
2022/06/01 05:47:10;;;;;;;7.47;5.78;;;6.70;99.90;;;;;;5014736;28;20397;-72
2022/06/01 05:49:36;;;;;;;11.38;7.43;;;6.80;99.90;;;;;;5007106;28;20060;-71
2022/06/01 05:52:01;;;;;;;11.38;6.93;;;6.90;99.90;;;;;;5008181;28;20083;-71
2022/06/01 05:54:28;;;;;;;12.43;6.60;;;7.00;99.90;;;;;;5021792;28;20111;-72
2022/06/01 05:56:54;;;;;;;10.57;6.97;;;7.20;99.90;;;;;;5019902;28;20072;-71
2022/06/01 05:59:19;;;;;;;9.73;6.03;;;7.30;99.90;;;;;;5012038;28;20068;-71
2022/06/01 06:01:45;;;;;;;8.38;5.53;;;7.40;99.90;;;;;;5014228;28;20484;-71
2022/06/01 06:04:12;;;;;;;11.00;6.68;;;7.60;99.90;;;;;;5018939;28;20112;-72
2022/06/01 06:06:38;;;;;;;9.13;6.32;;;7.60;99.90;;;;;;5006779;28;20038;-71
2022/06/01 06:09:07;;;;;;;8.73;6.35;;;7.80;99.90;;;;;;5001626;28;20565;-72
2022/06/01 06:11:35;;;;;;;7.55;5.68;;;7.90;99.90;;;;;;5022827;28;20056;-71
2022/06/01 06:14:01;;;;;;;9.27;6.18;;;8.00;99.90;;;;;;5005502;28;20130;-72
2022/06/01 06:16:30;;;;;;;11.90;7.30;;;8.10;99.90;;;;;;5012953;28;20599;-71
2022/06/01 06:18:58;;;;;;;12.80;6.60;;;8.20;99.90;;;;;;5007032;28;20038;-72
2022/06/01 06:21:25;;;;;;;8.52;6.22;;;8.30;99.90;;;;;;5015191;28;20025;-71
2022/06/01 06:23:51;;;;;;;8.55;6.43;;;8.40;99.90;;;;;;5010991;28;20040;-71
2022/06/01 06:26:17;;;;;;;9.85;6.30;;;8.50;99.90;;;;;;5006901;28;20151;-71
2022/06/01 06:28:44;;;;;;;10.50;5.80;;;8.60;99.90;;;;;;5016028;28;20064;-71
2022/06/01 06:31:10;;;;;;;16.25;10.23;;;8.70;99.90;;;;;;5006320;28;20078;-71
2022/06/01 06:33:35;;;;;;;10.50;6.43;;;8.80;99.90;;;;;;5012338;28;20041;-72
2022/06/01 06:36:06;;;;;;;152.73;94.90;;;8.90;99.90;;;;;;5023772;28;20036;-72
2022/06/01 06:38:33;;;;;;;9.32;6.32;;;8.90;99.90;;;;;;5000297;28;20026;-72
2022/06/01 06:41:01;;;;;;;7.75;4.72;;;9.00;99.90;;;;;;5017078;28;20126;-72
2022/06/01 06:43:28;;;;;;;11.63;5.65;;;9.20;99.90;;;;;;5014053;28;20030;-72
2022/06/01 06:46:15;;;;;;;10.05;6.30;;;9.40;99.90;;;;;;5007997;28;20049;-72
2022/06/01 06:48:42;;;;;;;5.55;4.80;;;9.90;99.90;;;;;;5018129;28;20480;-72
2022/06/01 06:51:09;;;;;;;4.40;4.00;;;10.20;99.90;;;;;;4669704;28;9999923;-71
2022/06/01 06:53:34;;;;;;;7.97;6.05;;;10.20;99.90;;;;;;5021427;28;20041;-72
2022/06/01 06:56:00;;;;;;;9.05;6.97;;;10.20;99.90;;;;;;5010086;28;20041;-72
2022/06/01 06:58:27;;;;;;;8.70;5.50;;;10.10;99.90;;;;;;5016571;28;20065;-72
2022/06/01 07:00:52;;;;;;;5.70;4.88;;;10.10;99.90;;;;;;5017758;28;20038;-72
2022/06/01 07:03:18;;;;;;;7.60;4.90;;;10.20;99.90;;;;;;5005186;28;20041;-72
2022/06/01 07:08:28;;;;;;;7.35;4.40;;;10.50;99.90;;;;;;5010037;28;20037;-72
2022/06/01 07:10:56;;;;;;;5.30;3.75;;;11.00;99.90;;;;;;5008440;28;20026;-71
2022/06/01 07:13:22;;;;;;;4.93;3.85;;;11.60;99.90;;;;;;5010858;28;20029;-71
2022/06/01 07:15:48;;;;;;;6.20;3.83;;;12.00;99.90;;;;;;5001119;28;20072;-72
2022/06/01 07:18:14;;;;;;;6.28;3.75;;;12.50;99.90;;;;;;5005481;28;20045;-72
2022/06/01 07:20:39;;;;;;;4.15;3.05;;;13.10;99.90;;;;;;5005832;28;20029;-72
2022/06/01 07:23:06;;;;;;;8.68;3.80;;;13.40;99.90;;;;;;5009541;28;20495;-71
2022/06/01 07:25:32;;;;;;;3.72;2.78;;;13.60;99.90;;;;;;5011238;28;20113;-71
2022/06/01 07:27:57;;;;;;;3.88;2.88;;;14.00;99.90;;;;;;5009489;28;20032;-72
2022/06/01 07:30:23;;;;;;;3.35;2.42;;;15.00;99.90;;;;;;5011998;28;20032;-71
2022/06/01 07:32:49;;;;;;;3.05;2.38;;;15.40;99.90;;;;;;5011154;28;20508;-71
2022/06/01 07:35:17;;;;;;;3.95;3.10;;;15.80;99.90;;;;;;5010413;28;20037;-71
2022/06/01 07:43:15;;;;;;;2.00;1.83;;;18.10;99.90;;;;;;5004719;28;20076;-72
2022/06/01 07:45:44;;;;;;;2.90;2.05;;;21.70;90.50;;;;;;5000673;28;20026;-72
2022/06/01 07:48:10;;;;;;;3.88;1.52;;;25.50;64.00;;;;;;5000115;28;20033;-71
2022/06/01 07:50:37;;;;;;;1.35;1.25;;;27.00;52.50;;;;;;4997433;28;20025;-72
2022/06/01 07:53:07;;;;;;;1.88;1.02;;;28.90;46.30;;;;;;5010808;28;20064;-73
2022/06/01 07:55:34;;;;;;;1.95;1.10;;;30.20;44.00;;;;;;5008567;28;20035;-73
2022/06/01 07:58:00;;;;;;;1.65;1.33;;;30.20;41.40;;;;;;4991467;28;20053;-72
2022/06/01 08:00:27;;;;;;;4.28;1.67;;;30.60;39.70;;;;;;5012287;28;20099;-73
2022/06/01 08:02:53;;;;;;;3.85;1.65;;;31.70;38.00;;;;;;5002757;28;20150;-71
2022/06/01 08:05:20;;;;;;;4.00;1.60;;;31.20;37.00;;;;;;4996448;28;20396;-72
2022/06/01 08:07:46;;;;;;;2.55;1.50;;;32.10;35.70;;;;;;5000412;28;20128;-72
2022/06/01 08:10:14;;;;;;;2.05;1.50;;;32.60;35.00;;;;;;5010970;28;20083;-70
2022/06/01 08:15:26;;;;;;;2.92;1.65;;;33.00;34.00;;;;;;4994026;28;20107;-71
2022/06/01 08:17:53;;;;;;;2.65;1.08;;;34.50;34.40;;;;;;5006875;28;20152;-71
2022/06/01 08:20:18;;;;;;;2.42;1.27;;;33.60;33.40;;;;;;4996682;28;20484;-72
2022/06/01 08:22:44;;;;;;;1.92;1.50;;;34.40;33.30;;;;;;4999386;28;20036;-72
2022/06/01 08:25:13;;;;;;;2.38;1.10;;;34.00;32.00;;;;;;5004961;28;20030;-72
2022/06/01 08:27:39;;;;;;;2.13;1.13;;;33.30;32.10;;;;;;4997040;28;20060;-72
2022/06/01 08:30:06;;;;;;;5.88;1.13;;;33.80;32.80;;;;;;5002686;28;20032;-72
2022/06/01 08:32:32;;;;;;;2.13;1.48;;;34.00;34.20;;;;;;4996990;28;20021;-72
2022/06/01 08:34:57;;;;;;;3.17;1.30;;;33.50;34.30;;;;;;5000763;28;20416;-72
2022/06/01 08:37:23;;;;;;;3.58;0.93;;;33.50;35.10;;;;;;5002524;28;20084;-72
2022/06/01 08:39:49;;;;;;;1.77;1.15;;;33.90;32.20;;;;;;4997446;28;20168;-72
2022/06/01 08:42:19;;;;;;;0.60;0.60;;;33.00;36.30;;;;;;4996841;28;20120;-72
2022/06/01 08:44:46;;;;;;;1.52;0.80;;;32.00;36.00;;;;;;5000030;28;20729;-73
2022/06/01 08:47:25;;;;;;;1.48;0.68;;;33.10;34.50;;;;;;5007487;28;20511;-73
2022/06/01 08:49:51;;;;;;;0.82;0.45;;;31.80;36.60;;;;;;4990417;28;20099;-72
2022/06/01 08:52:19;;;;;;;4.72;1.00;;;33.00;32.80;;;;;;5004419;28;20171;-72
2022/06/01 08:54:44;;;;;;;2.45;0.70;;;32.00;31.90;;;;;;5004812;28;20021;-72
2022/06/01 08:57:34;;;;;;;2.72;0.60;;;31.50;36.10;;;;;;5012599;28;20464;-72
2022/06/01 09:00:16;;;;;;;2.42;0.50;;;32.80;33.80;;;;;;5013545;28;20038;-71
2022/06/01 09:02:58;;;;;;;2.33;0.80;;;32.90;33.40;;;;;;4991217;28;20083;-72
2022/06/01 09:05:49;;;;;;;0.98;0.35;;;31.30;33.80;;;;;;5005499;28;20040;-72
2022/06/01 09:08:41;;;;;;;1.83;0.30;;;28.90;34.80;;;;;;5005912;28;20037;-71
2022/06/01 09:11:12;;;;;;;1.65;0.90;;;28.30;37.70;;;;;;5005348;28;20801;-71
2022/06/01 09:14:04;;;;;;;1.77;0.45;;;26.70;38.20;;;;;;5010919;28;20125;-71
2022/06/01 09:16:38;;;;;;;0.93;0.50;;;26.40;42.70;;;;;;5005788;28;20132;-70
2022/06/01 09:19:07;;;;;;;1.17;0.35;;;25.00;41.70;;;;;;5009078;28;20157;-72
2022/06/01 09:24:32;;;;;;;3.70;1.00;;;22.10;53.80;;;;;;5011719;28;20102;-72
2022/06/01 09:27:11;;;;;;;2.28;0.60;;;21.40;57.30;;;;;;4992452;28;20417;-73
2022/06/01 09:29:49;;;;;;;2.28;0.98;;;21.40;65.00;;;;;;5011171;28;20029;-72
2022/06/01 09:32:27;;;;;;;1.80;0.50;;;20.90;61.20;;;;;;4639651;28;9999617;-72
2022/06/01 09:34:54;;;;;;;1.50;0.40;;;20.20;62.00;;;;;;5005548;28;20029;-72
2022/06/01 09:37:26;;;;;;;1.20;0.70;;;20.00;67.70;;;;;;4995433;28;20431;-72
2022/06/01 09:40:05;;;;;;;2.30;0.50;;;20.50;54.10;;;;;;5011575;28;20026;-72
2022/06/01 09:42:37;;;;;;;2.00;0.93;;;22.30;60.60;;;;;;5013717;28;20079;-72
2022/06/01 09:45:13;;;;;;;3.05;0.50;;;25.60;55.40;;;;;;5006725;28;20107;-73
2022/06/01 09:47:44;;;;;;;2.10;0.50;;;27.40;45.20;;;;;;4986400;28;20057;-73
2022/06/01 09:50:24;;;;;;;2.42;0.50;;;25.20;39.50;;;;;;5007461;28;20052;-71
2022/06/01 09:52:59;;;;;;;2.50;0.60;;;22.80;54.90;;;;;;4991481;28;20041;-73
2022/06/01 09:55:27;;;;;;;1.75;0.85;;;21.10;65.40;;;;;;4988354;28;20042;-73
2022/06/01 09:58:06;;;;;;;1.45;0.50;;;20.20;71.80;;;;;;5008349;28;20084;-73
2022/06/01 10:06:31;;;;;;;3.05;0.73;;;18.90;77.70;;;;;;5010987;28;20100;-73
2022/06/01 10:09:13;;;;;;;;;;;19.30;85.60;;;;;;5008486;28;20404;-73
2022/06/01 10:11:44;;;;;;;1.23;0.40;;;21.10;83.40;;;;;;5014528;28;19920;-74
2022/06/01 10:14:15;;;;;;;0.63;0.60;;;22.70;58.60;;;;;;5011006;28;20068;-74
2022/06/01 10:16:56;;;;;;;0.52;0.50;;;24.00;51.20;;;;;;5012122;28;20114;-74
2022/06/01 10:19:43;;;;;;;0.55;0.40;;;26.00;48.40;;;;;;5013877;28;20033;-74
2022/06/01 10:22:41;;;;;;;1.45;0.60;;;26.80;46.00;;;;;;5019023;28;20117;-73
2022/06/01 10:25:19;;;;;;;1.42;0.50;;;27.60;43.90;;;;;;5006222;28;20048;-73
2022/06/01 10:27:58;;;;;;;2.38;0.60;;;27.70;42.80;;;;;;5007104;28;20088;-73
2022/06/01 10:30:28;;;;;;;1.23;0.60;;;26.00;42.20;;;;;;5018106;28;20030;-74
2022/06/01 10:33:08;;;;;;;0.75;0.50;;;24.50;47.40;;;;;;4996827;28;20403;-73
2022/06/01 10:35:34;;;;;;;2.27;0.50;;;23.20;51.20;;;;;;5011319;28;20075;-72
2022/06/01 10:38:07;;;;;;;3.90;0.82;;;22.00;51.90;;;;;;5015439;28;20050;-73
2022/06/01 10:40:52;;;;;;;2.15;0.57;;;20.80;55.80;;;;;;5005006;28;22413;-73
2022/06/01 10:43:31;;;;;;;3.20;0.85;;;20.10;60.60;;;;;;4989670;28;20041;-73
2022/06/01 10:46:35;;;;;;;1.77;0.75;;;19.20;65.20;;;;;;5008375;28;20025;-73
2022/06/01 10:49:33;;;;;;;3.22;0.70;;;18.10;65.70;;;;;;5010754;28;20119;-76
2022/06/01 10:52:03;;;;;;;0.77;0.77;;;17.60;78.50;;;;;;5008454;28;20116;-73
2022/06/01 10:55:06;;;;;;;2.40;1.10;;;17.40;83.30;;;;;;4990353;28;20648;-74
2022/06/01 10:57:36;;;;;;;0.90;0.68;;;17.40;83.80;;;;;;5019265;28;20043;-73
2022/06/01 11:00:07;;;;;;;2.97;0.93;;;17.90;86.40;;;;;;5010702;28;20040;-73
2022/06/01 11:03:09;;;;;;;1.23;0.68;;;18.80;86.60;;;;;;5014245;28;20056;-74
2022/06/01 11:05:53;;;;;;;;;;;21.40;81.20;;;;;;5011342;28;20033;-73
2022/06/01 11:08:51;;;;;;;1.65;1.02;;;21.80;62.10;;;;;;5008314;28;20591;-74
2022/06/01 11:11:27;;;;;;;1.55;0.90;;;21.30;60.40;;;;;;5012542;28;20743;-73
2022/06/01 11:14:01;;;;;;;2.42;1.08;;;20.40;62.60;;;;;;5018399;28;20048;-73
2022/06/01 11:16:39;;;;;;;2.75;0.85;;;19.50;73.60;;;;;;5017088;28;20072;-73
2022/06/01 11:19:14;;;;;;;1.30;0.73;;;19.10;82.60;;;;;;5027184;28;20026;-73
2022/06/01 11:22:24;;;;;;;2.03;1.00;;;18.70;87.80;;;;;;5025070;28;20037;-73
2022/06/01 11:25:04;;;;;;;1.85;1.30;;;18.50;90.10;;;;;;5007859;28;20033;-73
2022/06/01 11:27:39;;;;;;;4.30;1.20;;;18.20;91.00;;;;;;5004371;28;20095;-73
2022/06/01 11:30:05;;;;;;;1.95;1.00;;;18.30;90.50;;;;;;5007587;28;20021;-73
2022/06/01 11:32:38;;;;;;;1.38;1.10;;;18.60;88.70;;;;;;5011461;28;20380;-74
2022/06/01 11:35:32;;;;;;;9.65;4.10;;;19.70;91.40;;;;;;5009266;28;20090;-73
2022/06/01 11:38:21;;;;;;;3.05;0.82;;;21.20;71.80;;;;;;5009844;28;20053;-73
2022/06/01 11:41:00;;;;;;;3.25;0.88;;;22.50;71.90;;;;;;5011404;28;20103;-73
2022/06/01 11:43:55;;;;;;;1.00;0.80;;;22.80;64.30;;;;;;4999558;28;20029;-74
2022/06/01 11:46:37;;;;;;;1.90;0.90;;;22.50;58.90;;;;;;5014134;28;20052;-75
2022/06/01 11:49:25;;;;;;;5.85;1.20;;;21.20;64.40;;;;;;5012569;28;21499;-74
2022/06/01 11:51:51;;;;;;;1.33;1.13;;;21.40;69.70;;;;;;5021198;28;20484;-74
2022/06/01 11:54:33;;;;;;;1.58;1.05;;;21.40;59.30;;;;;;5032603;28;20605;-75
2022/06/01 11:57:29;;;;;;;1.40;1.30;;;21.30;60.30;;;;;;5023047;28;20528;-74
2022/06/01 12:00:13;;;;;;;2.13;0.82;;;20.90;64.40;;;;;;4986828;28;20053;-75
2022/06/01 12:02:44;;;;;;;1.70;1.08;;;20.80;66.60;;;;;;5022547;28;20037;-73
2022/06/01 12:05:31;;;;;;;0.95;0.70;;;21.00;69.90;;;;;;5017032;28;20022;-74
2022/06/01 12:08:05;;;;;;;2.38;1.30;;;21.60;69.20;;;;;;5015668;28;20037;-74
2022/06/01 12:10:52;;;;;;;3.25;0.95;;;21.60;70.50;;;;;;5023810;28;20498;-73
2022/06/01 12:13:30;;;;;;;0.88;0.88;;;21.60;68.90;;;;;;5018775;28;20034;-74
2022/06/01 12:16:26;;;;;;;1.83;1.00;;;22.00;56.60;;;;;;5004233;28;20064;-73
2022/06/01 12:19:30;;;;;;;3.13;1.08;;;21.60;60.70;;;;;;5000214;28;20040;-74
2022/06/01 12:22:00;;;;;;;4.38;1.08;;;21.10;58.00;;;;;;4975661;28;20521;-74
2022/06/01 12:30:19;;;;;;;2.72;0.90;;;20.90;63.00;;;;;;4989589;28;20041;-74
2022/06/01 12:33:00;;;;;;;3.50;1.20;;;20.20;67.90;;;;;;4986910;28;20033;-74
2022/06/01 12:35:50;;;;;;;1.30;1.20;;;20.00;68.70;;;;;;4999142;28;20061;-73
2022/06/01 12:38:28;;;;;;;1.90;0.80;;;19.50;70.70;;;;;;5000538;28;20041;-73
2022/06/01 12:40:59;;;;;;;1.08;0.98;;;18.90;67.50;;;;;;5002115;28;20065;-73
2022/06/01 12:43:25;;;;;;;;;;;18.30;81.20;;;;;;5004048;28;20032;-73
2022/06/01 12:45:59;;;;;;;1.95;1.17;;;18.00;82.30;;;;;;4997494;28;20070;-74
2022/06/01 12:48:27;;;;;;;21.83;14.52;;;17.40;90.50;;;;;;4980756;28;20053;-72
2022/06/01 12:51:04;;;;;;;5.53;2.22;;;16.80;97.10;;;;;;4987340;28;20030;-73
2022/06/01 12:53:47;;;;;;;4.28;2.45;;;16.40;99.90;;;;;;4983430;28;20030;-72
2022/06/01 12:56:21;;;;;;;2.05;1.83;;;16.00;99.90;;;;;;4978299;28;20425;-72
2022/06/01 12:58:50;;;;;;;2.65;2.35;;;16.00;99.90;;;;;;4980395;28;20029;-70
2022/06/01 13:01:20;;;;;;;4.30;2.60;;;15.90;99.90;;;;;;4983102;28;20100;-71
2022/06/01 13:03:50;;;;;;;4.03;2.43;;;15.90;99.90;;;;;;4977662;28;20045;-71
2022/06/01 13:06:23;;;;;;;9.65;5.20;;;15.80;99.90;;;;;;4975804;28;20743;-71
2022/06/01 13:08:57;;;;;;;3.92;3.55;;;16.00;99.90;;;;;;4982971;28;20797;-71
2022/06/01 13:11:30;;;;;;;3.67;3.10;;;16.20;99.90;;;;;;4987132;28;20120;-70
2022/06/01 13:14:01;;;;;;;4.05;3.10;;;16.30;99.90;;;;;;4986106;28;20057;-68
2022/06/01 13:16:45;;;;;;;6.88;2.90;;;16.20;99.90;;;;;;5010948;28;20084;-71
2022/06/01 13:19:18;;;;;;;2.88;2.65;;;16.00;99.90;;;;;;5021751;28;20500;-70
2022/06/01 13:21:51;;;;;;;3.80;3.20;;;15.70;99.90;;;;;;5019876;28;20029;-70
2022/06/01 13:24:17;;;;;;;5.03;3.80;;;15.50;99.90;;;;;;5021309;28;20025;-70
2022/06/01 13:26:50;;;;;;;4.38;3.45;;;15.30;99.90;;;;;;5012725;28;20731;-69
2022/06/01 13:29:19;;;;;;;6.25;4.10;;;15.30;99.90;;;;;;5002564;28;20228;-68
2022/06/01 13:31:52;;;;;;;5.82;3.70;;;15.10;99.90;;;;;;5019832;28;20043;-68
2022/06/01 13:34:38;;;;;;;9.43;4.25;;;14.80;99.90;;;;;;5019035;28;20041;-69
2022/06/01 13:37:30;;;;;;;4.38;3.97;;;14.70;99.90;;;;;;4998346;28;20064;-70
2022/06/01 13:40:05;;;;;;;8.15;4.78;;;14.40;99.90;;;;;;5016615;28;20123;-69
2022/06/01 13:42:46;;;;;;;8.13;5.90;;;14.40;99.90;;;;;;5016863;28;20087;-70
2022/06/01 13:45:20;;;;;;;10.00;5.30;;;14.50;99.90;;;;;;5023231;28;20028;-70
2022/06/01 13:47:49;;;;;;;11.23;7.13;;;14.50;99.90;;;;;;5010934;28;20547;-69
2022/06/01 13:50:15;;;;;;;5.35;4.72;;;14.80;99.90;;;;;;5010616;28;20571;-70
2022/06/01 13:53:03;;;;;;;5.25;4.70;;;14.90;99.90;;;;;;5002720;28;20111;-69